Cascade Locks, OR (97014)

8:11 PM PDT on August 30, 2015 (GMT -0700)
Wind River - Stabler, WA | | Change Station
CLOSE
Current Station
Personal Weather Station
Location: Carson, WA
Elevation: 994 ft
Nearby Weather Stations

Elev 994 ft 45.80 °N, 121.91 °W | Updated 1 minute ago

Mostly Cloudy
Mostly Cloudy
56.8 °F
Feels Like 56.8 °F
N
0.0
Wind Variable Wind from WSW
Gusts 0.0 mph

Today
High -- | Low -- °F
--% Chance of Precip.
Yesterday
High -- | Low -- °F
Precip. -- in
6:25 AM 7:49 PM
Full, 97% visible
Pressure 30.04 in
Visibility 10.0 miles
Clouds Scattered Clouds 5500 ft
Scattered Clouds 7000 ft
Overcast 8500 ft
Dew Point 54 °F
Humidity 89%
Rainfall 0.74 in
Snow Depth Not available.
UV 0.0 out of 12
Pollen .50 out of 12
Air Quality Not available.
Flu Activity Not available.
METAR KTTD 310253Z 27003KT 10SM SCT055 SCT070 OVC085 19/09 A3004 RMK AO2 SLP171 T01940094 53006
Pressure 30.04 in
Visibility 10.0 miles
Clouds Scattered Clouds 5500 ft
Scattered Clouds 7000 ft
Overcast 8500 ft
Dew Point 54 °F
Humidity 89%
Rainfall 0.74 in
Snow Depth Not available.
UV 0.0 out of 12
Pollen .50 out of 12
Air Quality Not available.
Flu Activity Not available.
METAR KTTD 310253Z 27003KT 10SM SCT055 SCT070 OVC085 19/09 A3004 RMK AO2 SLP171 T01940094 53006

10-Day Weather Forecast

×

Almanac

Astronomy

Aug. 30, 2015 Rise Set
Actual Time
Civil Twilight
Nautical Twilight
Astronomical Twilight
Moon
Length of Visible Light
Length of Day
Tomorrow will be .
, % of the Moon is Illuminated

Today's Extremes

State Highs State Lows

Community

WunderPhotos

Upload Photos

1,851,167 photos uploaded!

WunderBlogs® & News

Nearby

Air Quality

  Air Quality AQ Index Pollutant
Not available.

Snow Depth

Station Depth Elevation

Earthquake Activity

City Distance Mag. Time & Date
Minimum magnitude displayed is 2.5.

Coastal Water Temperatures

Place Temperature

Stations

Nearby Weather Stations

Station Location Temp. Windchill Dew Point Humidity Wind Precip. Elev Updated Type